createdAt,value
2023-01-27T00:00:39.604Z,98931.56
2023-01-27T00:03:22.282Z,98931.56
2023-01-27T00:05:49.703Z,98933.31
2023-01-27T00:08:17.955Z,98930.72
2023-01-27T00:10:45.016Z,98929.84
2023-01-27T00:13:29.406Z,98923.78
2023-01-27T00:15:56.446Z,98920.34
2023-01-27T00:18:24.019Z,98921.22
2023-01-27T00:21:09.771Z,98924.66
2023-01-27T00:23:55.832Z,98922.94
2023-01-27T00:26:23.407Z,98919.50
2023-01-27T00:28:50.589Z,98928.97
2023-01-27T00:31:36.899Z,98925.53
2023-01-27T00:34:11.552Z,98928.13
2023-01-27T00:36:40.487Z,98923.78
2023-01-27T00:39:08.227Z,98924.69
2023-01-27T00:41:35.399Z,98921.22
2023-01-27T00:44:03.066Z,98922.94
2023-01-27T00:46:30.119Z,98918.63
2023-01-27T00:48:57.343Z,98922.06
2023-01-27T00:51:24.479Z,98927.25
2023-01-27T00:53:51.711Z,98923.78
2023-01-27T00:56:18.895Z,98919.50
2023-01-27T00:58:46.146Z,98919.50
2023-01-27T01:01:15.651Z,98916.03
2023-01-27T01:03:44.148Z,98916.91
2023-01-27T01:06:13.123Z,98918.59
2023-01-27T01:08:40.494Z,98925.53
2023-01-27T01:11:09.446Z,98922.06
2023-01-27T01:13:36.871Z,98913.44
2023-01-27T01:16:13.033Z,98915.16
2023-01-27T01:18:40.310Z,98906.56
2023-01-27T01:21:07.715Z,98907.41
2023-01-27T01:23:39.082Z,98908.25
2023-01-27T01:26:06.345Z,98909.13
2023-01-27T01:28:33.574Z,98908.25
2023-01-27T01:31:26.505Z,98912.59
2023-01-27T01:33:53.746Z,98911.72
2023-01-27T01:36:21.658Z,98908.28
2023-01-27T01:38:49.046Z,98904.81
2023-01-27T01:41:19.888Z,98905.69
2023-01-27T01:43:48.271Z,98904.81
2023-01-27T01:46:15.475Z,98907.38
2023-01-27T01:48:48.244Z,98912.59
2023-01-27T01:51:28.871Z,98904.81
2023-01-27T01:54:12.424Z,98910.00
2023-01-27T01:56:45.443Z,98897.06
2023-01-27T01:59:20.052Z,98899.63
2023-01-27T02:01:47.482Z,98903.94
2023-01-27T02:04:19.609Z,98912.59
2023-01-27T02:06:56.061Z,98898.75
2023-01-27T02:09:23.889Z,98909.13
2023-01-27T02:11:51.638Z,98897.91
2023-01-27T02:14:19.036Z,98897.91
2023-01-27T02:16:46.982Z,98891.88
2023-01-27T02:19:47.271Z,98894.44
2023-01-27T02:22:24.810Z,98898.78
2023-01-27T02:25:00.286Z,98909.13
2023-01-27T02:27:27.231Z,98908.28
2023-01-27T02:29:54.439Z,98903.94
2023-01-27T02:32:27.125Z,98898.78
2023-01-27T02:34:56.839Z,98891.88
2023-01-27T02:37:24.671Z,98902.22
2023-01-27T02:39:53.543Z,98909.16
2023-01-27T02:42:20.634Z,98900.50
2023-01-27T02:44:47.824Z,98899.63
2023-01-27T02:47:14.776Z,98904.81
2023-01-27T02:49:41.963Z,98894.44
2023-01-27T02:52:08.874Z,98897.06
2023-01-27T02:54:36.053Z,98898.78
2023-01-27T02:57:02.997Z,98898.75
2023-01-27T02:59:30.432Z,98902.22
2023-01-27T03:01:57.353Z,98901.38
2023-01-27T03:04:24.564Z,98900.50
2023-01-27T03:06:51.520Z,98895.34
2023-01-27T03:09:18.703Z,98896.16
2023-01-27T03:12:04.271Z,98897.88
2023-01-27T03:14:50.157Z,98906.53
2023-01-27T03:17:35.880Z,98910.84
2023-01-27T03:20:03.436Z,98912.59
2023-01-27T03:22:30.275Z,98916.03
2023-01-27T03:24:57.479Z,98915.16
2023-01-27T03:27:24.396Z,98914.28
2023-01-27T03:29:58.028Z,98915.16
2023-01-27T03:32:27.333Z,98915.16
2023-01-27T03:34:57.757Z,98909.97
2023-01-27T03:37:44.504Z,98914.28
2023-01-27T03:40:31.247Z,98909.97
2023-01-27T03:43:17.417Z,98911.69
2023-01-27T03:46:10.759Z,98900.47
2023-01-27T03:48:38.103Z,98909.97
2023-01-27T03:51:08.037Z,98903.94
2023-01-27T03:53:35.819Z,98897.88
2023-01-27T03:56:05.956Z,98894.41
2023-01-27T03:58:35.878Z,98893.56
2023-01-27T04:01:22.239Z,98891.84
2023-01-27T04:04:08.700Z,98883.19
2023-01-27T04:06:55.355Z,98881.50
2023-01-27T04:09:29.382Z,98884.06
2023-01-27T04:11:59.135Z,98878.88
2023-01-27T04:14:32.048Z,98889.25
2023-01-27T04:17:04.834Z,98891.81
2023-01-27T04:19:32.487Z,98893.56
2023-01-27T04:22:01.078Z,98891.81
2023-01-27T04:24:28.830Z,98888.38
2023-01-27T04:27:03.143Z,98891.84
2023-01-27T04:29:32.739Z,98889.25
2023-01-27T04:31:59.989Z,98889.25
2023-01-27T04:34:28.163Z,98890.97
2023-01-27T04:36:56.211Z,98887.50
2023-01-27T04:39:23.572Z,98885.78
2023-01-27T04:41:51.661Z,98883.19
2023-01-27T04:44:21.803Z,98882.31
2023-01-27T04:46:50.851Z,98884.91
2023-01-27T04:49:18.632Z,98881.47
2023-01-27T04:51:47.242Z,98882.31
2023-01-27T04:54:14.559Z,98888.41
2023-01-27T04:56:53.593Z,98885.81
2023-01-27T04:59:20.457Z,98891.84
2023-01-27T05:01:47.616Z,98884.94
2023-01-27T05:04:14.475Z,98883.22
2023-01-27T05:06:41.741Z,98897.00
2023-01-27T05:09:08.703Z,98888.38
2023-01-27T05:11:35.894Z,98888.38
2023-01-27T05:14:02.708Z,98890.13
2023-01-27T05:16:29.925Z,98897.88
2023-01-27T05:18:56.923Z,98889.25
2023-01-27T05:21:28.442Z,98891.84
2023-01-27T05:23:55.381Z,98894.44
2023-01-27T05:26:27.817Z,98891.84
2023-01-27T05:28:57.881Z,98897.03
2023-01-27T05:31:28.005Z,98897.88
2023-01-27T05:33:56.356Z,98895.31
2023-01-27T05:36:24.858Z,98895.31
2023-01-27T05:38:52.442Z,98901.34
2023-01-27T05:41:20.562Z,98900.50
2023-01-27T05:43:51.955Z,98898.75
2023-01-27T05:46:21.853Z,98894.44
2023-01-27T05:48:51.165Z,98894.44
2023-01-27T05:51:20.071Z,98900.50
2023-01-27T05:53:47.683Z,98898.75
2023-01-27T05:56:17.382Z,98895.28
2023-01-27T05:58:45.029Z,98897.91
2023-01-27T06:01:21.458Z,98904.78
2023-01-27T06:03:48.779Z,98903.94
2023-01-27T06:06:20.201Z,98904.78
2023-01-27T06:08:48.225Z,98899.59
2023-01-27T06:11:17.035Z,98913.44
2023-01-27T06:13:44.012Z,98913.41
2023-01-27T06:16:13.940Z,98915.16
2023-01-27T06:18:41.280Z,98909.97
2023-01-27T06:21:10.232Z,98911.72
2023-01-27T06:23:38.059Z,98925.50
2023-01-27T06:26:12.001Z,98927.25
2023-01-27T06:28:40.124Z,98921.22
2023-01-27T06:31:22.512Z,98928.97
2023-01-27T06:33:50.833Z,98935.03
2023-01-27T06:36:20.738Z,98935.00
2023-01-27T06:38:49.030Z,98928.97
2023-01-27T06:41:16.335Z,98931.53
2023-01-27T06:43:43.317Z,98938.47
2023-01-27T06:46:10.605Z,98935.88
2023-01-27T06:48:40.475Z,98930.69
2023-01-27T06:51:07.792Z,98929.81
2023-01-27T06:53:37.392Z,98942.78
2023-01-27T06:56:05.534Z,98943.63
2023-01-27T06:58:33.130Z,98931.53
2023-01-27T07:01:00.596Z,98936.72
2023-01-27T07:03:27.493Z,98930.69
2023-01-27T07:05:54.813Z,98938.44
2023-01-27T07:08:21.701Z,98941.03
2023-01-27T07:10:48.899Z,98941.88
2023-01-27T07:13:16.185Z,98940.16
2023-01-27T07:15:43.461Z,98950.53
2023-01-27T07:18:14.386Z,98946.19
2023-01-27T07:20:41.938Z,98947.03
2023-01-27T07:23:09.706Z,98942.75
2023-01-27T07:25:36.987Z,98944.44
2023-01-27T07:28:04.235Z,98946.19
2023-01-27T07:30:33.963Z,98950.47
2023-01-27T07:33:05.770Z,98956.50
2023-01-27T07:35:33.294Z,98954.75
2023-01-27T07:38:00.215Z,98950.47
2023-01-27T07:40:27.402Z,98951.28
2023-01-27T07:42:57.865Z,98951.25
2023-01-27T07:45:25.187Z,98949.50
2023-01-27T07:47:52.467Z,98939.97
2023-01-27T07:50:21.691Z,98941.69
2023-01-27T07:52:48.540Z,98946.00
2023-01-27T07:55:15.796Z,98952.03
2023-01-27T07:57:42.733Z,98959.81
2023-01-27T08:00:10.723Z,98952.88
2023-01-27T08:02:37.655Z,98962.34
2023-01-27T08:05:05.120Z,98965.81
2023-01-27T08:07:32.063Z,98964.94
2023-01-27T08:09:59.472Z,98966.66
2023-01-27T08:12:26.319Z,98964.03
2023-01-27T08:14:53.564Z,98957.97
2023-01-27T08:17:20.454Z,98957.94
2023-01-27T08:19:50.673Z,98950.16
2023-01-27T08:22:21.070Z,98964.00
2023-01-27T08:24:49.301Z,98963.97
2023-01-27T08:27:17.976Z,98963.13
2023-01-27T08:29:45.397Z,98963.97
2023-01-27T08:32:15.065Z,98961.38
2023-01-27T08:34:42.495Z,98963.09
2023-01-27T08:37:09.528Z,98963.06
2023-01-27T08:39:36.781Z,98969.06
2023-01-27T08:42:03.771Z,98975.13
2023-01-27T08:44:30.948Z,98974.25
2023-01-27T08:46:57.830Z,98979.44
2023-01-27T08:49:25.168Z,98974.25
2023-01-27T08:51:52.197Z,98969.88
2023-01-27T08:54:19.400Z,98978.50
2023-01-27T08:56:46.273Z,98980.22
2023-01-27T08:59:13.409Z,98989.72
2023-01-27T09:01:41.787Z,98987.13
2023-01-27T09:04:10.494Z,98992.31
2023-01-27T09:06:37.431Z,98990.63
2023-01-27T09:09:11.942Z,98991.47
2023-01-27T09:11:42.070Z,98996.63
2023-01-27T09:14:10.353Z,98992.25
2023-01-27T09:16:37.395Z,98995.75
2023-01-27T09:19:04.598Z,99000.09
2023-01-27T09:21:32.079Z,98992.25
2023-01-27T09:23:59.388Z,98985.28
2023-01-27T09:26:26.547Z,98981.78
2023-01-27T09:28:53.972Z,98980.00
2023-01-27T09:31:20.993Z,98984.34
2023-01-27T09:33:48.226Z,98980.78
2023-01-27T09:36:19.397Z,98979.91
2023-01-27T09:38:58.025Z,98975.50
2023-01-27T09:42:02.569Z,98976.28
2023-01-27T09:44:55.272Z,98975.34
2023-01-27T09:47:23.438Z,98969.19
2023-01-27T09:50:16.798Z,98961.28
2023-01-27T09:53:18.992Z,98964.59
2023-01-27T09:56:04.129Z,98960.06
2023-01-27T09:59:12.812Z,98959.16
2023-01-27T10:01:40.016Z,98958.16
2023-01-27T10:04:15.851Z,98965.91
2023-01-27T10:06:45.613Z,98947.72
2023-01-27T10:09:41.087Z,98947.78
2023-01-27T10:12:34.537Z,98946.03
2023-01-27T10:15:26.970Z,98952.00
2023-01-27T10:18:15.337Z,98943.38
2023-01-27T10:20:48.561Z,98952.94
2023-01-27T10:23:36.981Z,98949.50
2023-01-27T10:26:27.298Z,98946.16
2023-01-27T10:29:05.888Z,98947.91
2023-01-27T10:31:37.911Z,98951.34
2023-01-27T10:34:26.732Z,98950.50
2023-01-27T10:37:00.372Z,98955.72
2023-01-27T10:39:44.192Z,98947.00
2023-01-27T10:42:17.358Z,98948.72
2023-01-27T10:44:44.506Z,98951.28
2023-01-27T10:47:42.534Z,98952.88
2023-01-27T10:50:17.084Z,98956.31
2023-01-27T10:53:02.027Z,98954.56
2023-01-27T10:55:51.624Z,98962.19
2023-01-27T10:58:43.460Z,98952.50
2023-01-27T11:01:22.753Z,98948.91
2023-01-27T11:03:59.060Z,98950.59
2023-01-27T11:06:31.765Z,98952.41
2023-01-27T11:09:07.938Z,98945.38
2023-01-27T11:11:44.795Z,98946.13
2023-01-27T11:14:12.644Z,98951.22
2023-01-27T11:16:43.081Z,98954.66
2023-01-27T11:19:29.429Z,98950.28
2023-01-27T11:22:07.794Z,98943.28
2023-01-27T11:24:45.611Z,98937.19
2023-01-27T11:27:53.114Z,98942.44
2023-01-27T11:30:28.141Z,98945.03
2023-01-27T11:32:58.329Z,98939.81
2023-01-27T11:35:25.378Z,98922.47
2023-01-27T11:37:58.269Z,98928.53
2023-01-27T11:40:38.539Z,98925.94
2023-01-27T11:43:05.889Z,98912.91
2023-01-27T11:45:36.119Z,98919.72
2023-01-27T11:48:07.998Z,98929.97
2023-01-27T11:50:36.256Z,98933.28
2023-01-27T11:53:28.467Z,98939.34
2023-01-27T11:56:03.968Z,98930.75
2023-01-27T11:58:49.406Z,98932.53
2023-01-27T12:01:24.132Z,98922.09
2023-01-27T12:04:04.697Z,98915.91
2023-01-27T12:06:38.463Z,98924.44
2023-01-27T12:09:05.692Z,98925.09
2023-01-27T12:11:33.197Z,98919.84
2023-01-27T12:14:02.760Z,98923.22
2023-01-27T12:16:52.076Z,98929.34
2023-01-27T12:19:32.123Z,98928.56
2023-01-27T12:22:03.081Z,98926.13
2023-01-27T12:24:37.638Z,98928.00
2023-01-27T12:27:07.012Z,98922.03
2023-01-27T12:29:43.202Z,98923.00
2023-01-27T12:32:23.090Z,98912.66
2023-01-27T12:34:56.602Z,98918.88
2023-01-27T12:37:30.220Z,98918.22
2023-01-27T12:40:03.829Z,98914.97
2023-01-27T12:42:36.191Z,98922.09
2023-01-27T12:45:30.118Z,98921.44
2023-01-27T12:48:00.068Z,98920.66
2023-01-27T12:50:33.226Z,98915.50
2023-01-27T12:53:20.633Z,98923.47
2023-01-27T12:56:10.112Z,98914.94
2023-01-27T12:58:40.694Z,98929.81
2023-01-27T13:01:37.544Z,98921.28
2023-01-27T13:04:10.198Z,98923.09
2023-01-27T13:06:47.601Z,98921.44
2023-01-27T13:09:26.665Z,98923.25
2023-01-27T13:11:57.250Z,98929.34
2023-01-27T13:14:27.888Z,98922.44
2023-01-27T13:16:58.502Z,98923.34
2023-01-27T13:19:31.626Z,98918.13
2023-01-27T13:21:59.999Z,98925.94
2023-01-27T13:24:42.461Z,98920.78
2023-01-27T13:27:17.841Z,98917.34
2023-01-27T13:29:56.855Z,98910.44
2023-01-27T13:32:28.441Z,98914.84
2023-01-27T13:35:16.894Z,98920.03
2023-01-27T13:37:52.698Z,98917.50
2023-01-27T13:40:27.781Z,98908.84
2023-01-27T13:43:06.055Z,98917.50
2023-01-27T13:45:40.659Z,98918.38
2023-01-27T13:48:24.673Z,98905.44
2023-01-27T13:50:58.595Z,98919.28
2023-01-27T13:53:25.888Z,98913.19
2023-01-27T13:56:14.053Z,98913.19
2023-01-27T13:58:59.777Z,98918.38
2023-01-27T14:02:02.007Z,98919.31
2023-01-27T14:05:26.016Z,98931.47
2023-01-27T14:08:18.847Z,98928.06
2023-01-27T14:10:57.131Z,98924.66
2023-01-27T14:13:41.995Z,98922.06
2023-01-27T14:16:31.754Z,98927.28
2023-01-27T14:19:16.801Z,98923.84
2023-01-27T14:21:51.974Z,98928.22
2023-01-27T14:24:49.993Z,98939.53
2023-01-27T14:27:23.495Z,98938.69
2023-01-27T14:30:02.196Z,98938.72
2023-01-27T14:32:38.419Z,98938.75
2023-01-27T14:35:10.046Z,98950.88
2023-01-27T14:37:49.072Z,98950.00
2023-01-27T14:40:29.405Z,98950.06
2023-01-27T14:43:17.793Z,98951.78
2023-01-27T14:46:13.650Z,98945.78
2023-01-27T14:48:58.117Z,98950.97
2023-01-27T14:51:50.728Z,98948.38
2023-01-27T14:54:50.225Z,98951.03
2023-01-27T14:57:37.547Z,98940.63
2023-01-27T15:00:27.467Z,98952.78
2023-01-27T15:03:32.958Z,98947.59
2023-01-27T15:06:12.872Z,98936.38
2023-01-27T15:08:45.716Z,98947.66
2023-01-27T15:11:51.407Z,98941.59
2023-01-27T15:14:54.488Z,98948.53
2023-01-27T15:17:24.393Z,98949.41
2023-01-27T15:20:23.603Z,98955.47
2023-01-27T15:23:24.249Z,98953.72
2023-01-27T15:25:55.482Z,98941.66
2023-01-27T15:28:28.708Z,98947.69
2023-01-27T15:31:15.290Z,98953.75
2023-01-27T15:33:48.760Z,98956.38
2023-01-27T15:36:27.470Z,98953.78
2023-01-27T15:39:10.039Z,98960.69
2023-01-27T15:41:38.893Z,98963.28
2023-01-27T15:44:25.371Z,98968.47
2023-01-27T15:46:54.896Z,98960.72
2023-01-27T15:49:35.416Z,98966.78
2023-01-27T15:52:25.446Z,98971.94
2023-01-27T15:54:55.924Z,98971.97
2023-01-27T15:57:39.148Z,98971.97
2023-01-27T16:00:23.959Z,98978.03
2023-01-27T16:02:54.500Z,98971.97
2023-01-27T16:05:30.317Z,98978.91
2023-01-27T16:08:02.644Z,98978.88
2023-01-27T16:10:33.988Z,98978.91
2023-01-27T16:13:23.986Z,98991.88
2023-01-27T16:16:19.329Z,98982.38
2023-01-27T16:18:57.548Z,98988.41
2023-01-27T16:21:57.587Z,98985.84
2023-01-27T16:24:39.666Z,98984.97
2023-01-27T16:27:08.274Z,98989.31
2023-01-27T16:29:57.389Z,98995.34
2023-01-27T16:32:31.011Z,98984.09
2023-01-27T16:35:03.599Z,98986.69
2023-01-27T16:37:37.608Z,98993.63
2023-01-27T16:40:18.118Z,99005.72
2023-01-27T16:42:54.163Z,98997.06
2023-01-27T16:45:27.367Z,98995.34
2023-01-27T16:48:06.474Z,99000.56
2023-01-27T16:50:41.985Z,99002.28
2023-01-27T16:53:21.098Z,98996.25
2023-01-27T16:55:58.737Z,98995.38
2023-01-27T16:58:39.898Z,99004.88
2023-01-27T17:01:23.313Z,99001.41
2023-01-27T17:03:56.940Z,99006.59
2023-01-27T17:06:27.612Z,99009.22
2023-01-27T17:08:54.961Z,99014.41
2023-01-27T17:11:26.680Z,99013.53
2023-01-27T17:14:21.245Z,99011.78
2023-01-27T17:16:59.126Z,99010.09
2023-01-27T17:19:33.243Z,99017.88
2023-01-27T17:22:11.618Z,99023.91
2023-01-27T17:24:49.939Z,99021.31
2023-01-27T17:27:38.639Z,99024.78
2023-01-27T17:30:24.157Z,99014.41
2023-01-27T17:33:00.649Z,99013.53
2023-01-27T17:35:34.054Z,99028.22
2023-01-27T17:38:20.026Z,99029.09
2023-01-27T17:40:49.491Z,99035.16
2023-01-27T17:43:25.552Z,99024.78
2023-01-27T17:46:06.077Z,99031.69
2023-01-27T17:48:35.818Z,99031.69
2023-01-27T17:51:03.107Z,99029.97
2023-01-27T17:53:30.562Z,99029.97
2023-01-27T17:55:57.900Z,99024.78
2023-01-27T17:58:27.891Z,99038.63
2023-01-27T18:00:56.558Z,99032.56
2023-01-27T18:03:30.440Z,99034.31
2023-01-27T18:05:57.870Z,99037.75
2023-01-27T18:08:24.856Z,99035.16
2023-01-27T18:10:52.164Z,99047.25
2023-01-27T18:13:19.316Z,99035.16
2023-01-27T18:15:51.866Z,99036.00
2023-01-27T18:18:28.087Z,99037.75
2023-01-27T18:21:01.349Z,99048.09
2023-01-27T18:23:32.460Z,99050.69
2023-01-27T18:26:08.620Z,99055.88
2023-01-27T18:28:38.238Z,99061.94
2023-01-27T18:31:15.106Z,99060.22
2023-01-27T18:33:43.903Z,99056.75
2023-01-27T18:36:23.510Z,99048.13
2023-01-27T18:38:51.008Z,99057.59
2023-01-27T18:41:27.908Z,99059.34
2023-01-27T18:44:01.036Z,99061.09
2023-01-27T18:46:28.335Z,99060.19
2023-01-27T18:48:55.723Z,99067.13
2023-01-27T18:51:23.089Z,99056.75
2023-01-27T18:53:50.183Z,99059.34
2023-01-27T18:56:17.642Z,99061.94
2023-01-27T18:58:44.545Z,99055.03
2023-01-27T19:01:21.606Z,99061.06
2023-01-27T19:03:50.932Z,99066.25
2023-01-27T19:06:18.598Z,99067.97
2023-01-27T19:08:45.520Z,99062.78
2023-01-27T19:11:16.329Z,99067.09
2023-01-27T19:13:44.481Z,99074.88
2023-01-27T19:16:17.744Z,99079.22
2023-01-27T19:18:45.448Z,99074.88
2023-01-27T19:21:14.369Z,99080.94
2023-01-27T19:23:44.589Z,99079.22
2023-01-27T19:26:17.475Z,99077.47
2023-01-27T19:28:47.258Z,99075.75
2023-01-27T19:31:14.897Z,99080.94
2023-01-27T19:33:44.139Z,99083.53
2023-01-27T19:36:11.366Z,99080.06
2023-01-27T19:38:38.266Z,99082.66
2023-01-27T19:41:05.704Z,99080.06
2023-01-27T19:43:32.595Z,99085.22
2023-01-27T19:45:59.873Z,99082.66
2023-01-27T19:48:26.930Z,99086.94
2023-01-27T19:50:54.699Z,99086.13
2023-01-27T19:53:21.641Z,99086.09
2023-01-27T19:55:49.611Z,99082.66
2023-01-27T19:58:25.595Z,99091.28
2023-01-27T20:00:54.250Z,99086.97
2023-01-27T20:03:23.115Z,99082.66
2023-01-27T20:05:50.527Z,99094.72
2023-01-27T20:08:20.067Z,99095.59
2023-01-27T20:10:48.131Z,99090.41
2023-01-27T20:13:17.276Z,99089.53
2023-01-27T20:15:45.332Z,99096.44
2023-01-27T20:18:16.678Z,99098.19
2023-01-27T20:20:44.843Z,99096.44
2023-01-27T20:23:13.752Z,99090.41
2023-01-27T20:25:40.798Z,99102.50
2023-01-27T20:28:08.219Z,99093.84
2023-01-27T20:30:35.465Z,99099.03
2023-01-27T20:33:03.765Z,99100.78
2023-01-27T20:35:31.340Z,99099.91
2023-01-27T20:37:58.560Z,99100.75
2023-01-27T20:40:28.363Z,99101.59
2023-01-27T20:42:55.300Z,99096.44
2023-01-27T20:45:23.247Z,99100.75
2023-01-27T20:47:51.921Z,99105.94
2023-01-27T20:50:19.696Z,99105.94
2023-01-27T20:52:48.738Z,99105.94
2023-01-27T20:55:17.919Z,99097.31
2023-01-27T20:57:45.760Z,99107.69
2023-01-27T21:00:21.005Z,99108.53
2023-01-27T21:02:48.699Z,99107.66
2023-01-27T21:05:16.430Z,99106.81
2023-01-27T21:07:43.670Z,99111.13
2023-01-27T21:10:11.670Z,99109.38
2023-01-27T21:12:38.748Z,99108.53
2023-01-27T21:15:09.917Z,99111.09
2023-01-27T21:17:37.493Z,99117.13
2023-01-27T21:20:05.554Z,99108.50
2023-01-27T21:22:34.579Z,99106.78
2023-01-27T21:25:02.054Z,99116.25
2023-01-27T21:27:29.030Z,99107.63
2023-01-27T21:29:56.285Z,99111.06
2023-01-27T21:32:23.231Z,99115.41
2023-01-27T21:34:50.432Z,99115.38
2023-01-27T21:37:17.553Z,99113.66
2023-01-27T21:39:44.770Z,99114.53
2023-01-27T21:42:14.359Z,99119.72
2023-01-27T21:45:00.039Z,99108.50
2023-01-27T21:47:27.385Z,99112.81
2023-01-27T21:50:00.601Z,99105.91
2023-01-27T21:52:43.078Z,99111.91
2023-01-27T21:55:16.741Z,99105.91
2023-01-27T21:57:45.930Z,99111.06
2023-01-27T22:00:14.623Z,99110.19
2023-01-27T22:02:42.217Z,99107.59
2023-01-27T22:05:11.403Z,99111.06
2023-01-27T22:07:38.558Z,99107.59
2023-01-27T22:10:08.002Z,99113.66
2023-01-27T22:12:34.915Z,99116.25
2023-01-27T22:15:02.496Z,99113.66
2023-01-27T22:17:29.422Z,99108.50
2023-01-27T22:19:56.633Z,99114.56
2023-01-27T22:22:23.561Z,99100.72
2023-01-27T22:24:50.785Z,99103.31
2023-01-27T22:27:17.670Z,99099.00
2023-01-27T22:29:44.862Z,99102.47
2023-01-27T22:32:11.823Z,99105.06
2023-01-27T22:34:38.993Z,99102.47
2023-01-27T22:37:06.123Z,99101.59
2023-01-27T22:39:33.853Z,99100.72
2023-01-27T22:42:00.824Z,99099.88
2023-01-27T22:44:28.035Z,99099.88
2023-01-27T22:46:54.964Z,99100.72
2023-01-27T22:49:22.180Z,99094.72
2023-01-27T22:51:49.114Z,99088.66
2023-01-27T22:54:16.379Z,99099.00
2023-01-27T22:56:43.403Z,99096.44
2023-01-27T22:59:13.991Z,99099.88
2023-01-27T23:01:40.946Z,99099.00
2023-01-27T23:04:10.566Z,99100.72
2023-01-27T23:06:39.066Z,99103.31
2023-01-27T23:09:06.209Z,99091.25
2023-01-27T23:11:33.325Z,99100.72
2023-01-27T23:14:01.766Z,99099.84
2023-01-27T23:16:28.821Z,99093.81
2023-01-27T23:18:56.068Z,99093.81
2023-01-27T23:21:22.997Z,99094.66
2023-01-27T23:23:51.099Z,99092.94
2023-01-27T23:26:18.035Z,99098.13
2023-01-27T23:28:45.301Z,99094.66
2023-01-27T23:31:13.448Z,99100.69
2023-01-27T23:33:42.543Z,99098.13
2023-01-27T23:36:10.647Z,99091.22
2023-01-27T23:38:38.329Z,99100.69
2023-01-27T23:41:08.390Z,99091.19
2023-01-27T23:43:35.515Z,99092.09
2023-01-27T23:46:02.500Z,99094.69
2023-01-27T23:48:29.996Z,99091.22
2023-01-27T23:50:56.939Z,99093.78
2023-01-27T23:53:24.250Z,99090.34
2023-01-27T23:55:58.768Z,99092.06
2023-01-27T23:58:27.625Z,99086.88
